sensor_id;sensor_type;location;lat;lon;timestamp;pressure;altitude;pressure_sealevel;temperature;humidity
19843;BME280;10082;51.038;6.992;2023-04-28T00:00:23;112171.53;;;-144.33;73.77
19843;BME280;10082;51.038;6.992;2023-04-28T00:02:50;112171.53;;;-144.33;74.31
19843;BME280;10082;51.038;6.992;2023-04-28T00:05:18;112171.53;;;-144.33;73.53
19843;BME280;10082;51.038;6.992;2023-04-28T00:07:48;112171.53;;;-144.33;74.41
19843;BME280;10082;51.038;6.992;2023-04-28T00:10:15;112171.53;;;-144.33;73.96
19843;BME280;10082;51.038;6.992;2023-04-28T00:12:43;112171.53;;;-144.33;75.99
19843;BME280;10082;51.038;6.992;2023-04-28T00:15:11;112171.53;;;-144.33;77.02
19843;BME280;10082;51.038;6.992;2023-04-28T00:17:39;112171.53;;;-144.33;79.93
19843;BME280;10082;51.038;6.992;2023-04-28T00:20:07;112171.53;;;-144.33;82.90
19843;BME280;10082;51.038;6.992;2023-04-28T00:22:34;112171.53;;;-144.33;84.47
19843;BME280;10082;51.038;6.992;2023-04-28T00:25:04;112171.53;;;-144.33;86.09
19843;BME280;10082;51.038;6.992;2023-04-28T00:27:31;112171.53;;;-144.33;87.63
19843;BME280;10082;51.038;6.992;2023-04-28T00:29:59;112171.53;;;-144.33;88.84
19843;BME280;10082;51.038;6.992;2023-04-28T00:32:27;112171.53;;;-144.33;90.74
19843;BME280;10082;51.038;6.992;2023-04-28T00:34:55;112171.53;;;-144.33;92.68
19843;BME280;10082;51.038;6.992;2023-04-28T00:37:23;112171.53;;;-144.33;94.14
19843;BME280;10082;51.038;6.992;2023-04-28T00:39:54;112171.53;;;-144.33;94.15
19843;BME280;10082;51.038;6.992;2023-04-28T00:42:22;112171.53;;;-144.33;95.10
19843;BME280;10082;51.038;6.992;2023-04-28T00:44:50;112171.53;;;-144.33;98.36
19843;BME280;10082;51.038;6.992;2023-04-28T00:47:17;112171.53;;;-144.33;99.61
19843;BME280;10082;51.038;6.992;2023-04-28T00:49:45;112171.53;;;-144.33;100.00
19843;BME280;10082;51.038;6.992;2023-04-28T00:52:14;112171.53;;;-144.33;100.00
19843;BME280;10082;51.038;6.992;2023-04-28T00:54:41;112171.53;;;-144.33;100.00
19843;BME280;10082;51.038;6.992;2023-04-28T00:57:09;112171.53;;;-144.33;100.00
19843;BME280;10082;51.038;6.992;2023-04-28T00:59:38;112171.53;;;-144.33;100.00
19843;BME280;10082;51.038;6.992;2023-04-28T01:02:05;112171.53;;;-144.33;100.00
19843;BME280;10082;51.038;6.992;2023-04-28T01:04:33;112171.53;;;-144.33;100.00
19843;BME280;10082;51.038;6.992;2023-04-28T01:07:01;112171.53;;;-144.33;100.00
19843;BME280;10082;51.038;6.992;2023-04-28T01:09:29;112171.53;;;-144.33;100.00
19843;BME280;10082;51.038;6.992;2023-04-28T01:11:56;112171.53;;;-144.33;100.00
19843;BME280;10082;51.038;6.992;2023-04-28T01:14:51;112171.53;;;-144.33;100.00
19843;BME280;10082;51.038;6.992;2023-04-28T01:17:19;112171.53;;;-144.33;100.00
19843;BME280;10082;51.038;6.992;2023-04-28T01:19:47;112171.53;;;-144.33;100.00
19843;BME280;10082;51.038;6.992;2023-04-28T01:22:15;112171.53;;;-144.33;100.00
19843;BME280;10082;51.038;6.992;2023-04-28T01:24:44;112171.53;;;-144.33;100.00
19843;BME280;10082;51.038;6.992;2023-04-28T01:27:13;112171.53;;;-144.33;100.00
19843;BME280;10082;51.038;6.992;2023-04-28T01:29:41;112171.53;;;-144.33;100.00
19843;BME280;10082;51.038;6.992;2023-04-28T01:32:08;112171.53;;;-144.33;100.00
19843;BME280;10082;51.038;6.992;2023-04-28T01:34:35;112171.53;;;-144.33;100.00
19843;BME280;10082;51.038;6.992;2023-04-28T01:37:05;112171.53;;;-144.33;100.00
19843;BME280;10082;51.038;6.992;2023-04-28T01:39:32;112171.53;;;-144.33;100.00
19843;BME280;10082;51.038;6.992;2023-04-28T01:42:03;112171.53;;;-144.33;100.00
19843;BME280;10082;51.038;6.992;2023-04-28T01:44:31;112171.53;;;-144.33;100.00
19843;BME280;10082;51.038;6.992;2023-04-28T01:46:59;112171.53;;;-144.33;100.00
19843;BME280;10082;51.038;6.992;2023-04-28T01:49:27;112171.53;;;-144.33;100.00
19843;BME280;10082;51.038;6.992;2023-04-28T01:51:54;112171.53;;;-144.33;100.00
19843;BME280;10082;51.038;6.992;2023-04-28T01:54:21;112171.53;;;-144.33;100.00
19843;BME280;10082;51.038;6.992;2023-04-28T01:56:48;112171.53;;;-144.33;100.00
19843;BME280;10082;51.038;6.992;2023-04-28T01:59:19;112171.53;;;-144.33;100.00
19843;BME280;10082;51.038;6.992;2023-04-28T02:01:47;112171.53;;;-144.33;100.00
19843;BME280;10082;51.038;6.992;2023-04-28T02:04:14;112171.53;;;-144.33;100.00
19843;BME280;10082;51.038;6.992;2023-04-28T02:06:41;112171.53;;;-144.33;100.00
19843;BME280;10082;51.038;6.992;2023-04-28T02:09:11;112171.53;;;-144.33;100.00
19843;BME280;10082;51.038;6.992;2023-04-28T02:11:38;112171.53;;;-144.33;100.00
19843;BME280;10082;51.038;6.992;2023-04-28T02:14:06;111014.25;;;-144.33;100.00
19843;BME280;10082;51.038;6.992;2023-04-28T02:16:34;103422.44;;;-144.33;100.00
19843;BME280;10082;51.038;6.992;2023-04-28T02:19:02;99824.53;;;-144.33;100.00
19843;BME280;10082;51.038;6.992;2023-04-28T02:21:29;93920.56;;;-144.33;100.00
19843;BME280;10082;51.038;6.992;2023-04-28T02:23:56;84952.84;;;-144.33;100.00
19843;BME280;10082;51.038;6.992;2023-04-28T02:26:23;74983.69;;;-144.33;100.00
19843;BME280;10082;51.038;6.992;2023-04-28T02:28:50;65548.69;;;-144.33;100.00
19843;BME280;10082;51.038;6.992;2023-04-28T02:31:17;56135.97;;;-144.33;100.00
19843;BME280;10082;51.038;6.992;2023-04-28T02:33:46;47759.66;;;-144.33;100.00
19843;BME280;10082;51.038;6.992;2023-04-28T02:36:13;39654.09;;;-144.33;100.00
19843;BME280;10082;51.038;6.992;2023-04-28T02:38:41;33838.53;;;-144.33;100.00
19843;BME280;10082;51.038;6.992;2023-04-28T02:41:08;28788.50;;;-144.33;100.00
19843;BME280;10082;51.038;6.992;2023-04-28T02:43:36;25257.38;;;-144.33;100.00
19843;BME280;10082;51.038;6.992;2023-04-28T02:46:04;21225.69;;;-144.33;100.00
19843;BME280;10082;51.038;6.992;2023-04-28T02:48:31;18456.34;;;-144.33;100.00
19843;BME280;10082;51.038;6.992;2023-04-28T02:51:02;16695.03;;;-144.33;100.00
19843;BME280;10082;51.038;6.992;2023-04-28T02:53:30;14180.28;;;-144.33;100.00
19843;BME280;10082;51.038;6.992;2023-04-28T02:55:57;12672.22;;;-144.33;100.00
19843;BME280;10082;51.038;6.992;2023-04-28T02:58:27;10411.22;;;-144.33;100.00
19843;BME280;10082;51.038;6.992;2023-04-28T03:00:54;10411.22;;;-144.33;100.00
19843;BME280;10082;51.038;6.992;2023-04-28T03:03:21;10411.22;;;-144.33;100.00
19843;BME280;10082;51.038;6.992;2023-04-28T03:05:51;11164.75;;;-144.33;100.00
19843;BME280;10082;51.038;6.992;2023-04-28T03:08:20;11918.41;;;-144.33;100.00
19843;BME280;10082;51.038;6.992;2023-04-28T03:10:47;12169.66;;;-144.33;100.00
19843;BME280;10082;51.038;6.992;2023-04-28T03:13:14;12923.53;;;-144.33;100.00
19843;BME280;10082;51.038;6.992;2023-04-28T03:15:42;14431.69;;;-144.33;100.00
19843;BME280;10082;51.038;6.992;2023-04-28T03:18:11;15437.47;;;-144.33;100.00
19843;BME280;10082;51.038;6.992;2023-04-28T03:20:38;16191.97;;;-144.33;100.00
19843;BME280;10082;51.038;6.992;2023-04-28T03:23:05;16946.63;;;-144.33;100.00
19843;BME280;10082;51.038;6.992;2023-04-28T03:25:34;17198.19;;;-144.33;100.00
19843;BME280;10082;51.038;6.992;2023-04-28T03:28:02;16946.63;;;-144.33;100.00
19843;BME280;10082;51.038;6.992;2023-04-28T03:30:29;17198.19;;;-144.33;100.00
19843;BME280;10082;51.038;6.992;2023-04-28T03:32:57;16443.50;;;-144.33;100.00
19843;BME280;10082;51.038;6.992;2023-04-28T03:35:24;16443.50;;;-144.33;100.00
19843;BME280;10082;51.038;6.992;2023-04-28T03:37:52;15940.44;;;-144.33;100.00
19843;BME280;10082;51.038;6.992;2023-04-28T03:40:19;13928.91;;;-144.33;100.00
19843;BME280;10082;51.038;6.992;2023-04-28T03:43:26;10411.22;;;-144.33;100.00
19843;BME280;10082;51.038;6.992;2023-04-28T03:46:12;8151.53;;;-144.33;100.00
19843;BME280;10082;51.038;6.992;2023-04-28T03:48:40;6144.03;;;-144.33;100.00
19843;BME280;10082;51.038;6.992;2023-04-28T03:51:07;4388.31;;;-144.33;100.00
19843;BME280;10082;51.038;6.992;2023-04-28T03:53:35;2633.41;;;-144.33;100.00
19843;BME280;10082;51.038;6.992;2023-04-28T03:56:04;879.31;;;-144.33;100.00
19843;BME280;10082;51.038;6.992;2023-04-28T03:58:33;-373.16;;;-144.33;100.00
19843;BME280;10082;51.038;6.992;2023-04-28T04:01:00;-2125.91;;;-144.33;100.00
19843;BME280;10082;51.038;6.992;2023-04-28T04:03:27;-3877.84;;;-144.33;100.00
19843;BME280;10082;51.038;6.992;2023-04-28T04:05:55;-5128.75;;;-144.33;100.00
19843;BME280;10082;51.038;6.992;2023-04-28T04:08:23;-6379.25;;;-144.33;100.00
19843;BME280;10082;51.038;6.992;2023-04-28T04:10:50;-7379.34;;;-144.33;100.00
19843;BME280;10082;51.038;6.992;2023-04-28T04:13:18;-8379.19;;;-144.33;100.00
19843;BME280;10082;51.038;6.992;2023-04-28T04:15:47;-9128.91;;;-144.33;100.00
19843;BME280;10082;51.038;6.992;2023-04-28T04:18:17;-10128.28;;;-144.33;100.00
19843;BME280;10082;51.038;6.992;2023-04-28T04:21:04;-10627.88;;;-144.33;100.00
19843;BME280;10082;51.038;6.992;2023-04-28T04:23:31;-11127.41;;;-144.33;100.00
19843;BME280;10082;51.038;6.992;2023-04-28T04:26:00;-11377.16;;;-144.33;100.00
19843;BME280;10082;51.038;6.992;2023-04-28T04:28:27;-11626.88;;;-144.33;100.00
19843;BME280;10082;51.038;6.992;2023-04-28T04:30:57;-11876.59;;;-144.33;100.00
19843;BME280;10082;51.038;6.992;2023-04-28T04:33:24;-12126.28;;;-144.33;100.00
19843;BME280;10082;51.038;6.992;2023-04-28T04:35:51;-12375.97;;;-144.33;100.00
19843;BME280;10082;51.038;6.992;2023-04-28T04:41:22;-12625.63;;;-144.33;100.00
19843;BME280;10082;51.038;6.992;2023-04-28T04:43:58;-12875.25;;;-144.33;100.00
19843;BME280;10082;51.038;6.992;2023-04-28T04:46:31;-12875.25;;;-144.33;100.00
19843;BME280;10082;51.038;6.992;2023-04-28T04:48:58;-12625.63;;;-144.33;100.00
19843;BME280;10082;51.038;6.992;2023-04-28T04:51:26;-12625.63;;;-144.33;100.00
19843;BME280;10082;51.038;6.992;2023-04-28T04:53:54;-12875.25;;;-144.33;100.00
19843;BME280;10082;51.038;6.992;2023-04-28T04:56:21;-12875.25;;;-144.33;100.00
19843;BME280;10082;51.038;6.992;2023-04-28T04:58:51;-12875.25;;;-144.33;100.00
19843;BME280;10082;51.038;6.992;2023-04-28T05:01:40;-12875.25;;;-144.33;100.00
19843;BME280;10082;51.038;6.992;2023-04-28T05:04:08;-13124.88;;;-144.33;100.00
19843;BME280;10082;51.038;6.992;2023-04-28T05:06:35;-12875.25;;;-144.33;100.00
19843;BME280;10082;51.038;6.992;2023-04-28T05:09:03;-13124.88;;;-144.33;100.00
19843;BME280;10082;51.038;6.992;2023-04-28T05:11:31;-13124.88;;;-144.33;100.00
19843;BME280;10082;51.038;6.992;2023-04-28T05:13:58;-12875.25;;;-144.33;100.00
19843;BME280;10082;51.038;6.992;2023-04-28T05:16:26;-12875.25;;;-144.33;100.00
19843;BME280;10082;51.038;6.992;2023-04-28T05:19:01;-13124.88;;;-144.33;100.00
19843;BME280;10082;51.038;6.992;2023-04-28T05:21:30;-13374.50;;;-144.33;100.00
19843;BME280;10082;51.038;6.992;2023-04-28T05:23:57;-13124.88;;;-144.33;100.00
19843;BME280;10082;51.038;6.992;2023-04-28T05:26:25;-12875.25;;;-144.33;100.00
19843;BME280;10082;51.038;6.992;2023-04-28T05:29:00;-13124.88;;;-144.33;100.00
19843;BME280;10082;51.038;6.992;2023-04-28T05:31:28;-13124.88;;;-144.33;100.00
19843;BME280;10082;51.038;6.992;2023-04-28T05:33:55;-13124.88;;;-144.33;100.00
19843;BME280;10082;51.038;6.992;2023-04-28T05:36:25;-13374.50;;;-144.33;100.00
19843;BME280;10082;51.038;6.992;2023-04-28T05:38:53;-13624.09;;;-144.33;100.00
19843;BME280;10082;51.038;6.992;2023-04-28T05:41:21;-14123.22;;;-144.33;100.00
19843;BME280;10082;51.038;6.992;2023-04-28T05:43:48;-14622.31;;;-144.33;100.00
19843;BME280;10082;51.038;6.992;2023-04-28T05:46:16;-15121.31;;;-144.33;100.00
19843;BME280;10082;51.038;6.992;2023-04-28T05:48:43;-15620.25;;;-144.33;100.00
19843;BME280;10082;51.038;6.992;2023-04-28T05:51:10;-16368.56;;;-144.33;100.00
19843;BME280;10082;51.038;6.992;2023-04-28T05:53:40;-17116.72;;;-144.33;100.00
19843;BME280;10082;51.038;6.992;2023-04-28T05:56:08;-17366.06;;;-144.33;100.00
19843;BME280;10082;51.038;6.992;2023-04-28T05:58:36;-17615.41;;;-144.33;100.00
19843;BME280;10082;51.038;6.992;2023-04-28T06:01:04;-17616.84;;;-144.33;100.00
19843;BME280;10082;51.038;6.992;2023-04-28T06:03:31;-17616.84;;;-144.33;100.00
19843;BME280;10082;51.038;6.992;2023-04-28T06:05:59;-17616.84;;;-144.33;100.00
19843;BME280;10082;51.038;6.992;2023-04-28T06:08:26;-17616.84;;;-144.33;100.00
19843;BME280;10082;51.038;6.992;2023-04-28T06:10:55;-17616.84;;;-144.33;100.00
19843;BME280;10082;51.038;6.992;2023-04-28T06:13:23;-17616.84;;;-144.33;100.00
19843;BME280;10082;51.038;6.992;2023-04-28T06:15:51;-17616.84;;;-144.33;100.00
19843;BME280;10082;51.038;6.992;2023-04-28T06:18:18;-17616.84;;;-144.33;100.00
19843;BME280;10082;51.038;6.992;2023-04-28T06:20:46;-17616.84;;;-144.33;100.00
19843;BME280;10082;51.038;6.992;2023-04-28T06:23:13;-17616.84;;;-144.33;100.00
19843;BME280;10082;51.038;6.992;2023-04-28T06:25:44;-17616.84;;;-144.33;100.00
19843;BME280;10082;51.038;6.992;2023-04-28T06:28:13;-17616.84;;;-144.33;100.00
19843;BME280;10082;51.038;6.992;2023-04-28T06:30:41;-17616.84;;;-144.33;100.00
19843;BME280;10082;51.038;6.992;2023-04-28T06:33:08;-17616.84;;;-144.33;100.00
19843;BME280;10082;51.038;6.992;2023-04-28T06:35:35;-17616.84;;;-144.33;100.00
19843;BME280;10082;51.038;6.992;2023-04-28T06:38:05;-17616.84;;;-144.33;100.00
19843;BME280;10082;51.038;6.992;2023-04-28T06:40:32;-17616.84;;;-144.33;100.00
19843;BME280;10082;51.038;6.992;2023-04-28T06:43:02;-17616.84;;;-144.33;100.00
19843;BME280;10082;51.038;6.992;2023-04-28T06:45:40;-17616.84;;;-144.33;100.00
19843;BME280;10082;51.038;6.992;2023-04-28T06:48:08;-17616.84;;;-144.33;100.00
19843;BME280;10082;51.038;6.992;2023-04-28T06:50:37;-17616.84;;;-144.33;100.00
19843;BME280;10082;51.038;6.992;2023-04-28T06:53:06;-17616.84;;;-144.33;100.00
19843;BME280;10082;51.038;6.992;2023-04-28T06:55:44;-17615.41;;;-144.33;100.00
19843;BME280;10082;51.038;6.992;2023-04-28T06:58:11;-17366.06;;;-144.33;100.00
19843;BME280;10082;51.038;6.992;2023-04-28T07:00:40;-16867.34;;;-144.33;100.00
19843;BME280;10082;51.038;6.992;2023-04-28T07:03:08;-16368.56;;;-144.33;100.00
19843;BME280;10082;51.038;6.992;2023-04-28T07:05:35;-15869.72;;;-144.33;100.00
19843;BME280;10082;51.038;6.992;2023-04-28T07:08:03;-15869.72;;;-144.33;100.00
19843;BME280;10082;51.038;6.992;2023-04-28T07:10:31;-15869.72;;;-144.33;100.00
19843;BME280;10082;51.038;6.992;2023-04-28T07:12:58;-15869.72;;;-144.33;100.00
19843;BME280;10082;51.038;6.992;2023-04-28T07:15:26;-15121.31;;;-144.33;100.00
19843;BME280;10082;51.038;6.992;2023-04-28T07:17:55;-14871.81;;;-144.33;100.00
19843;BME280;10082;51.038;6.992;2023-04-28T07:20:22;-15121.31;;;-144.33;100.00
19843;BME280;10082;51.038;6.992;2023-04-28T07:22:49;-14372.78;;;-144.33;100.00
19843;BME280;10082;51.038;6.992;2023-04-28T07:25:16;-13873.69;;;-144.33;100.00
19843;BME280;10082;51.038;6.992;2023-04-28T07:27:44;-13873.69;;;-144.33;100.00
19843;BME280;10082;51.038;6.992;2023-04-28T07:30:12;-13873.69;;;-144.33;100.00
19843;BME280;10082;51.038;6.992;2023-04-28T07:32:39;-13374.50;;;-144.33;100.00
19843;BME280;10082;51.038;6.992;2023-04-28T07:35:08;-13624.09;;;-144.33;100.00
19843;BME280;10082;51.038;6.992;2023-04-28T07:37:35;-13624.09;;;-144.33;100.00
19843;BME280;10082;51.038;6.992;2023-04-28T07:40:03;-13873.69;;;-144.33;100.00
19843;BME280;10082;51.038;6.992;2023-04-28T07:42:31;-13873.69;;;-144.33;100.00
19843;BME280;10082;51.038;6.992;2023-04-28T07:44:58;-14123.22;;;-144.33;100.00
19843;BME280;10082;51.038;6.992;2023-04-28T07:47:25;-14123.22;;;-144.33;100.00
19843;BME280;10082;51.038;6.992;2023-04-28T07:49:53;-13624.09;;;-144.33;100.00
19843;BME280;10082;51.038;6.992;2023-04-28T07:52:23;-13624.09;;;-144.33;100.00
19843;BME280;10082;51.038;6.992;2023-04-28T07:54:50;-13873.69;;;-144.33;100.00
19843;BME280;10082;51.038;6.992;2023-04-28T07:57:17;-13624.09;;;-144.33;100.00
19843;BME280;10082;51.038;6.992;2023-04-28T07:59:44;-12875.25;;;-144.33;100.00
19843;BME280;10082;51.038;6.992;2023-04-28T08:02:11;-12126.28;;;-144.33;100.00
19843;BME280;10082;51.038;6.992;2023-04-28T08:04:39;-11377.16;;;-144.33;100.00
19843;BME280;10082;51.038;6.992;2023-04-28T08:07:07;-9878.47;;;-144.33;100.00
19843;BME280;10082;51.038;6.992;2023-04-28T08:09:36;-8379.19;;;-144.33;100.00
19843;BME280;10082;51.038;6.992;2023-04-28T08:12:04;-8379.19;;;-144.33;100.00
19843;BME280;10082;51.038;6.992;2023-04-28T08:14:32;-7379.34;;;-144.33;100.00
19843;BME280;10082;51.038;6.992;2023-04-28T08:17:00;-7379.34;;;-144.33;100.00
19843;BME280;10082;51.038;6.992;2023-04-28T08:19:27;-6379.25;;;-144.33;100.00
19843;BME280;10082;51.038;6.992;2023-04-28T08:21:54;-5128.75;;;-144.33;100.00
19843;BME280;10082;51.038;6.992;2023-04-28T08:24:21;-5128.75;;;-144.33;100.00
19843;BME280;10082;51.038;6.992;2023-04-28T08:26:50;-4378.25;;;-144.33;100.00
19843;BME280;10082;51.038;6.992;2023-04-28T08:29:17;-4128.06;;;-144.33;100.00
19843;BME280;10082;51.038;6.992;2023-04-28T08:31:44;-3627.63;;;-144.33;100.00
19843;BME280;10082;51.038;6.992;2023-04-28T08:34:11;-3127.09;;;-144.33;100.00
19843;BME280;10082;51.038;6.992;2023-04-28T08:36:38;-2876.84;;;-144.33;100.00
19843;BME280;10082;51.038;6.992;2023-04-28T08:39:05;-2376.22;;;-144.33;100.00
19843;BME280;10082;51.038;6.992;2023-04-28T08:41:36;-1124.44;;;-144.33;100.00
19843;BME280;10082;51.038;6.992;2023-04-28T08:44:07;-373.16;;;-144.33;100.00
19843;BME280;10082;51.038;6.992;2023-04-28T08:46:34;879.31;;;-144.33;100.00
19843;BME280;10082;51.038;6.992;2023-04-28T08:49:03;4639.09;;;-144.33;100.00
19843;BME280;10082;51.038;6.992;2023-04-28T08:51:34;7900.53;;;-144.33;100.00
19843;BME280;10082;51.038;6.992;2023-04-28T08:54:06;11164.75;;;-144.33;100.00
19843;BME280;10082;51.038;6.992;2023-04-28T08:56:33;12420.94;;;-144.33;100.00
19843;BME280;10082;51.038;6.992;2023-04-28T08:59:02;11918.41;;;-144.33;100.00
19843;BME280;10082;51.038;6.992;2023-04-28T09:01:31;12923.53;;;-144.33;100.00
19843;BME280;10082;51.038;6.992;2023-04-28T09:04:00;12672.22;;;-144.33;100.00
19843;BME280;10082;51.038;6.992;2023-04-28T09:06:31;13426.19;;;-144.33;100.00
19843;BME280;10082;51.038;6.992;2023-04-28T09:09:19;13677.53;;;-144.33;100.00
19843;BME280;10082;51.038;6.992;2023-04-28T09:11:53;11918.41;;;-144.33;100.00
19843;BME280;10082;51.038;6.992;2023-04-28T09:14:21;11415.94;;;-144.33;100.00
19843;BME280;10082;51.038;6.992;2023-04-28T09:16:50;12169.66;;;-144.33;100.00
19843;BME280;10082;51.038;6.992;2023-04-28T09:19:18;10662.38;;;-144.33;100.00
19843;BME280;10082;51.038;6.992;2023-04-28T09:21:46;10160.09;;;-144.33;100.00
19843;BME280;10082;51.038;6.992;2023-04-28T09:24:30;9155.69;;;-144.33;100.00
19843;BME280;10082;51.038;6.992;2023-04-28T09:26:58;7398.59;;;-144.33;100.00
19843;BME280;10082;51.038;6.992;2023-04-28T09:29:25;3636.13;;;-144.33;100.00
19843;BME280;10082;51.038;6.992;2023-04-28T09:32:11;-2125.91;;;-144.33;100.00
19843;BME280;10082;51.038;6.992;2023-04-28T09:34:42;-6879.34;;;-144.33;100.00
19843;BME280;10082;51.038;6.992;2023-04-28T09:37:15;-10128.28;;;-144.33;100.00
19843;BME280;10082;51.038;6.992;2023-04-28T09:39:43;-13124.88;;;-144.33;100.00
19843;BME280;10082;51.038;6.992;2023-04-28T09:42:30;-16119.16;;;-144.33;100.00
19843;BME280;10082;51.038;6.992;2023-04-28T09:44:57;-17616.84;;;-144.33;100.00
19843;BME280;10082;51.038;6.992;2023-04-28T09:47:28;-17616.84;;;-144.33;100.00
19843;BME280;10082;51.038;6.992;2023-04-28T09:49:58;-17616.84;;;-144.33;100.00
19843;BME280;10082;51.038;6.992;2023-04-28T09:55:13;-17616.84;;;-144.33;100.00
19843;BME280;10082;51.038;6.992;2023-04-28T09:57:43;-17616.84;;;-144.33;100.00
19843;BME280;10082;51.038;6.992;2023-04-28T10:00:11;-17616.84;;;-144.33;100.00
19843;BME280;10082;51.038;6.992;2023-04-28T10:02:41;-17616.84;;;-144.33;100.00
19843;BME280;10082;51.038;6.992;2023-04-28T10:05:10;-17616.84;;;-144.33;100.00
19843;BME280;10082;51.038;6.992;2023-04-28T10:07:38;-17616.84;;;-144.33;100.00
19843;BME280;10082;51.038;6.992;2023-04-28T10:10:06;-17616.84;;;-144.33;100.00
19843;BME280;10082;51.038;6.992;2023-04-28T10:12:34;-17616.84;;;-144.33;100.00
19843;BME280;10082;51.038;6.992;2023-04-28T10:15:03;-17616.84;;;-144.33;100.00
19843;BME280;10082;51.038;6.992;2023-04-28T10:17:31;-17616.84;;;-144.33;100.00
19843;BME280;10082;51.038;6.992;2023-04-28T10:20:01;-17616.84;;;-144.33;100.00
19843;BME280;10082;51.038;6.992;2023-04-28T10:22:36;-17616.84;;;-144.33;100.00
19843;BME280;10082;51.038;6.992;2023-04-28T10:25:19;-17616.84;;;-144.33;100.00
19843;BME280;10082;51.038;6.992;2023-04-28T10:27:51;-17616.84;;;-144.33;100.00
19843;BME280;10082;51.038;6.992;2023-04-28T10:30:20;-17616.84;;;-144.33;100.00
19843;BME280;10082;51.038;6.992;2023-04-28T10:33:23;-17616.84;;;-144.33;100.00
19843;BME280;10082;51.038;6.992;2023-04-28T10:35:53;-17616.84;;;-144.33;100.00
19843;BME280;10082;51.038;6.992;2023-04-28T10:38:20;-17616.84;;;-144.33;100.00
19843;BME280;10082;51.038;6.992;2023-04-28T10:40:47;-17616.84;;;-144.33;100.00
19843;BME280;10082;51.038;6.992;2023-04-28T10:43:33;-17616.84;;;-144.33;100.00
19843;BME280;10082;51.038;6.992;2023-04-28T10:46:11;-17616.84;;;-144.33;100.00
19843;BME280;10082;51.038;6.992;2023-04-28T10:48:54;-17616.84;;;-144.33;100.00
19843;BME280;10082;51.038;6.992;2023-04-28T10:51:33;-17616.84;;;-144.33;100.00
19843;BME280;10082;51.038;6.992;2023-04-28T10:54:15;-17616.84;;;-144.33;100.00
19843;BME280;10082;51.038;6.992;2023-04-28T10:57:15;-17616.84;;;-144.33;100.00
19843;BME280;10082;51.038;6.992;2023-04-28T10:59:44;-17616.84;;;-144.33;100.00
19843;BME280;10082;51.038;6.992;2023-04-28T11:05:17;-17616.84;;;-144.33;100.00
19843;BME280;10082;51.038;6.992;2023-04-28T11:11:20;-17616.84;;;-144.33;100.00
19843;BME280;10082;51.038;6.992;2023-04-28T11:13:49;-17616.84;;;-144.33;100.00
19843;BME280;10082;51.038;6.992;2023-04-28T11:16:18;-17616.84;;;-144.33;100.00
19843;BME280;10082;51.038;6.992;2023-04-28T11:18:52;-17616.84;;;-144.33;100.00
19843;BME280;10082;51.038;6.992;2023-04-28T11:21:19;-17616.84;;;-144.33;100.00
19843;BME280;10082;51.038;6.992;2023-04-28T11:23:47;-17616.84;;;-144.33;100.00
19843;BME280;10082;51.038;6.992;2023-04-28T11:26:17;-17616.84;;;-144.33;100.00
19843;BME280;10082;51.038;6.992;2023-04-28T11:28:52;-17616.84;;;-144.33;100.00
19843;BME280;10082;51.038;6.992;2023-04-28T11:31:22;-17616.84;;;-144.33;100.00
19843;BME280;10082;51.038;6.992;2023-04-28T11:33:56;-17616.84;;;-144.33;100.00
19843;BME280;10082;51.038;6.992;2023-04-28T11:36:26;-17616.84;;;-144.33;100.00
19843;BME280;10082;51.038;6.992;2023-04-28T11:38:54;-17616.84;;;-144.33;100.00
19843;BME280;10082;51.038;6.992;2023-04-28T11:41:23;-17616.84;;;-144.33;100.00
19843;BME280;10082;51.038;6.992;2023-04-28T11:43:51;-17616.84;;;-144.33;100.00
19843;BME280;10082;51.038;6.992;2023-04-28T11:46:19;-17616.84;;;-144.33;100.00
19843;BME280;10082;51.038;6.992;2023-04-28T11:48:47;-17616.84;;;-144.33;100.00
19843;BME280;10082;51.038;6.992;2023-04-28T11:51:29;-17616.84;;;-144.33;100.00
19843;BME280;10082;51.038;6.992;2023-04-28T11:53:58;-17616.84;;;-144.33;100.00
19843;BME280;10082;51.038;6.992;2023-04-28T11:56:27;-17616.84;;;-144.33;100.00
19843;BME280;10082;51.038;6.992;2023-04-28T11:59:02;-17616.84;;;-144.33;100.00
19843;BME280;10082;51.038;6.992;2023-04-28T12:01:30;-17616.84;;;-144.33;100.00
19843;BME280;10082;51.038;6.992;2023-04-28T12:03:57;-17616.84;;;-144.33;100.00
19843;BME280;10082;51.038;6.992;2023-04-28T12:06:25;-17616.84;;;-144.33;100.00
19843;BME280;10082;51.038;6.992;2023-04-28T12:08:52;-17616.84;;;-144.33;100.00
19843;BME280;10082;51.038;6.992;2023-04-28T12:11:20;-17616.84;;;-144.33;100.00
19843;BME280;10082;51.038;6.992;2023-04-28T12:14:05;-17616.84;;;-144.33;100.00
19843;BME280;10082;51.038;6.992;2023-04-28T12:16:39;-17616.84;;;-144.33;100.00
19843;BME280;10082;51.038;6.992;2023-04-28T12:19:09;-9628.63;;;-144.33;100.00
19843;BME280;10082;51.038;6.992;2023-04-28T12:21:37;-373.16;;;-144.33;100.00
19843;BME280;10082;51.038;6.992;2023-04-28T12:24:18;-623.59;;;-144.33;100.00
19843;BME280;10082;51.038;6.992;2023-04-28T12:26:46;13174.84;;;-144.33;100.00
19843;BME280;10082;51.038;6.992;2023-04-28T12:29:39;41425.78;;;-144.33;100.00
19843;BME280;10082;51.038;6.992;2023-04-28T12:32:07;47506.09;;;-144.33;100.00
19843;BME280;10082;51.038;6.992;2023-04-28T12:34:36;33585.88;;;-144.33;100.00
19843;BME280;10082;51.038;6.992;2023-04-28T12:37:05;19714.91;;;-144.33;100.00
19843;BME280;10082;51.038;6.992;2023-04-28T12:39:33;16946.63;;;-144.33;100.00
19843;BME280;10082;51.038;6.992;2023-04-28T12:42:01;27022.53;;;-144.33;100.00
19843;BME280;10082;51.038;6.992;2023-04-28T12:44:31;51057.31;;;-144.33;100.00
19843;BME280;10082;51.038;6.992;2023-04-28T12:47:05;56898.34;;;-144.33;100.00
19843;BME280;10082;51.038;6.992;2023-04-28T12:49:33;109517.28;;;-144.33;100.00